createdAt,value
2022-08-22T00:02:33.400Z,5.97
2022-08-22T00:03:06.552Z,5.93
2022-08-22T00:03:07.363Z,3.55
2022-08-22T00:05:23.005Z,6.13
2022-08-22T00:07:56.232Z,6.80
2022-08-22T00:10:35.419Z,6.30
2022-08-22T00:13:05.508Z,6.82
2022-08-22T00:15:43.221Z,6.35
2022-08-22T00:18:13.032Z,6.82
2022-08-22T00:20:57.898Z,5.78
2022-08-22T00:23:30.111Z,6.03
2022-08-22T00:26:02.837Z,5.97
2022-08-22T00:28:31.554Z,6.07
2022-08-22T00:31:02.664Z,6.20
2022-08-22T00:33:34.075Z,5.97
2022-08-22T00:36:03.927Z,5.65
2022-08-22T00:38:40.809Z,5.90
2022-08-22T00:41:10.190Z,6.32
2022-08-22T00:43:55.075Z,5.53
2022-08-22T00:46:40.334Z,5.97
2022-08-22T00:49:24.410Z,5.38
2022-08-22T00:52:14.408Z,5.63
2022-08-22T00:54:51.219Z,5.50
2022-08-22T00:57:36.440Z,5.78
2022-08-22T01:00:10.948Z,5.43
2022-08-22T01:02:40.813Z,5.70
2022-08-22T01:05:27.842Z,5.18
2022-08-22T01:08:02.848Z,5.38
2022-08-22T01:10:50.073Z,5.03
2022-08-22T01:13:20.370Z,5.70
2022-08-22T01:15:47.879Z,5.28
2022-08-22T01:18:14.115Z,5.45
2022-08-22T01:21:06.468Z,5.32
2022-08-22T01:23:51.627Z,5.00
2022-08-22T01:26:20.937Z,5.20
2022-08-22T01:29:06.082Z,5.38
2022-08-22T01:31:54.759Z,4.97
2022-08-22T01:34:20.982Z,6.07
2022-08-22T01:36:59.776Z,6.13
2022-08-22T01:39:41.871Z,5.60
2022-08-22T01:42:26.660Z,5.30
2022-08-22T01:45:00.639Z,5.20
2022-08-22T01:47:31.481Z,5.60
2022-08-22T01:50:11.185Z,5.90
2022-08-22T01:52:37.422Z,6.28
2022-08-22T01:55:10.093Z,5.63
2022-08-22T01:57:57.296Z,5.60
2022-08-22T02:00:34.710Z,6.00
2022-08-22T02:03:27.910Z,5.97
2022-08-22T02:06:26.692Z,5.45
2022-08-22T02:09:02.636Z,5.38
2022-08-22T02:11:31.981Z,5.80
2022-08-22T02:14:14.011Z,5.63
2022-08-22T02:16:42.398Z,5.90
2022-08-22T02:19:20.927Z,5.57
2022-08-22T02:21:56.411Z,5.50
2022-08-22T02:24:43.379Z,5.90
2022-08-22T02:27:31.444Z,4.93
2022-08-22T02:30:04.130Z,5.00
2022-08-22T02:32:37.141Z,5.53
2022-08-22T02:35:03.633Z,5.72
2022-08-22T02:37:55.250Z,5.40
2022-08-22T02:40:30.624Z,5.15
2022-08-22T02:43:09.526Z,5.43
2022-08-22T02:45:47.969Z,5.63
2022-08-22T02:48:27.779Z,5.40
2022-08-22T02:51:10.556Z,5.20
2022-08-22T02:53:49.778Z,5.25
2022-08-22T02:56:22.289Z,5.75
2022-08-22T02:58:53.544Z,5.55
2022-08-22T03:01:33.408Z,5.45
2022-08-22T03:04:18.305Z,5.45
2022-08-22T03:06:46.329Z,5.13
2022-08-22T03:09:15.336Z,5.32
2022-08-22T03:12:05.289Z,5.88
2022-08-22T03:14:44.384Z,5.33
2022-08-22T03:17:16.143Z,5.97
2022-08-22T03:20:01.352Z,5.50
2022-08-22T03:22:41.454Z,5.30
2022-08-22T03:25:28.067Z,5.78
2022-08-22T03:28:01.916Z,5.10
2022-08-22T03:30:42.184Z,5.20
2022-08-22T03:33:25.750Z,5.80
2022-08-22T03:35:57.935Z,5.05
2022-08-22T03:38:26.967Z,4.88
2022-08-22T03:41:03.244Z,5.10
2022-08-22T03:43:43.609Z,5.00
2022-08-22T03:46:21.472Z,5.53
2022-08-22T03:48:59.921Z,4.88
2022-08-22T03:51:38.406Z,4.72
2022-08-22T03:54:11.416Z,5.03
2022-08-22T03:56:49.958Z,5.05
2022-08-22T03:59:42.469Z,4.93
2022-08-22T04:02:24.983Z,4.80
2022-08-22T04:07:50.217Z,4.55
2022-08-22T04:10:29.749Z,5.13
2022-08-22T04:12:56.009Z,4.95
2022-08-22T04:15:25.376Z,5.03
2022-08-22T04:17:51.690Z,4.88
2022-08-22T04:20:37.655Z,4.70
2022-08-22T04:23:22.486Z,4.68
2022-08-22T04:25:53.462Z,4.97
2022-08-22T04:28:22.835Z,4.90
2022-08-22T04:30:49.057Z,5.00
2022-08-22T04:33:18.952Z,5.03
2022-08-22T04:35:52.138Z,5.30
2022-08-22T04:38:33.770Z,5.35
2022-08-22T04:41:04.745Z,5.50
2022-08-22T04:43:36.180Z,5.28
2022-08-22T04:46:08.254Z,5.20
2022-08-22T04:48:37.538Z,5.47
2022-08-22T04:51:08.519Z,5.57
2022-08-22T04:53:43.916Z,5.30
2022-08-22T04:56:29.064Z,5.18
2022-08-22T04:59:00.367Z,5.32
2022-08-22T05:01:47.033Z,5.40
2022-08-22T05:04:22.023Z,6.00
2022-08-22T05:06:50.456Z,5.82
2022-08-22T05:09:18.727Z,5.63
2022-08-22T05:11:46.910Z,6.20
2022-08-22T05:14:24.579Z,6.45
2022-08-22T05:16:52.864Z,5.47
2022-08-22T05:19:32.133Z,5.70
2022-08-22T05:21:58.934Z,6.18
2022-08-22T05:24:39.575Z,5.47
2022-08-22T05:29:32.564Z,6.28
2022-08-22T05:32:02.071Z,5.50
2022-08-22T05:34:31.705Z,5.25
2022-08-22T05:37:16.001Z,4.75
2022-08-22T05:39:46.973Z,5.10
2022-08-22T05:42:25.572Z,6.05
2022-08-22T05:44:51.883Z,5.30
2022-08-22T05:47:22.497Z,5.38
2022-08-22T05:52:27.291Z,5.25
2022-08-22T05:55:02.183Z,5.43
2022-08-22T05:57:30.131Z,5.10
2022-08-22T06:00:02.834Z,4.70
2022-08-22T06:02:38.927Z,5.40
2022-08-22T06:05:11.723Z,5.20
2022-08-22T06:07:46.369Z,5.10
2022-08-22T06:10:21.820Z,5.28
2022-08-22T06:12:58.129Z,5.38
2022-08-22T06:15:30.352Z,5.35
2022-08-22T06:18:05.332Z,5.32
2022-08-22T06:20:39.439Z,5.47
2022-08-22T06:23:07.322Z,5.68
2022-08-22T06:25:35.445Z,5.45
2022-08-22T06:28:04.590Z,5.28
2022-08-22T06:30:31.605Z,6.00
2022-08-22T06:33:01.199Z,5.45
2022-08-22T06:35:29.759Z,5.63
2022-08-22T06:37:59.457Z,6.05
2022-08-22T06:40:27.611Z,5.47
2022-08-22T06:42:54.479Z,6.28
2022-08-22T06:45:27.518Z,5.90
2022-08-22T06:48:00.578Z,5.55
2022-08-22T06:50:34.861Z,5.47
2022-08-22T06:53:05.542Z,5.82
2022-08-22T06:55:32.098Z,5.60
2022-08-22T06:58:18.340Z,5.57
2022-08-22T07:00:48.618Z,5.95
2022-08-22T07:03:28.034Z,5.72
2022-08-22T07:05:55.619Z,6.03
2022-08-22T07:08:22.744Z,5.13
2022-08-22T07:10:55.800Z,6.20
2022-08-22T07:13:24.106Z,5.68
2022-08-22T07:15:59.735Z,6.22
2022-08-22T07:18:27.546Z,6.43
2022-08-22T07:20:56.967Z,6.50
2022-08-22T07:23:31.541Z,4.60
2022-08-22T07:26:16.676Z,5.70
2022-08-22T07:28:50.819Z,5.68
2022-08-22T07:31:26.465Z,6.13
2022-08-22T07:34:01.061Z,5.45
2022-08-22T07:36:47.390Z,5.88
2022-08-22T07:39:25.472Z,4.93
2022-08-22T07:41:54.735Z,6.20
2022-08-22T07:44:23.456Z,5.43
2022-08-22T07:46:52.519Z,4.60
2022-08-22T07:49:24.177Z,5.63
2022-08-22T07:51:50.608Z,5.20
2022-08-22T07:54:22.424Z,5.72
2022-08-22T07:56:57.603Z,4.82
2022-08-22T07:59:24.307Z,5.63
2022-08-22T08:01:52.995Z,5.60
2022-08-22T08:04:21.654Z,5.53
2022-08-22T08:06:48.691Z,4.97
2022-08-22T08:09:15.548Z,4.75
2022-08-22T08:11:43.463Z,4.93
2022-08-22T08:14:13.767Z,4.88
2022-08-22T08:19:06.858Z,5.18
2022-08-22T08:21:37.931Z,4.90
2022-08-22T08:24:05.862Z,5.63
2022-08-22T08:26:34.171Z,4.55
2022-08-22T08:29:01.717Z,4.70
2022-08-22T08:31:32.298Z,5.25
2022-08-22T08:34:03.152Z,5.07
2022-08-22T08:36:36.650Z,5.72
2022-08-22T08:39:21.057Z,5.78
2022-08-22T08:41:47.293Z,5.72
2022-08-22T08:44:30.531Z,6.03
2022-08-22T08:47:22.882Z,6.32
2022-08-22T08:49:51.866Z,5.57
2022-08-22T08:52:27.399Z,5.60
2022-08-22T08:55:00.109Z,5.85
2022-08-22T08:57:27.565Z,5.13
2022-08-22T08:59:58.248Z,5.82
2022-08-22T09:02:44.322Z,5.68
2022-08-22T09:05:11.371Z,6.57
2022-08-22T09:07:52.708Z,5.63
2022-08-22T09:10:31.447Z,5.53
2022-08-22T09:13:21.247Z,5.13
2022-08-22T09:18:27.701Z,4.50
2022-08-22T09:21:30.644Z,5.45
2022-08-22T09:24:16.128Z,3.80
2022-08-22T09:26:48.062Z,4.30
2022-08-22T09:29:32.820Z,4.72
2022-08-22T09:32:02.634Z,4.32
2022-08-22T09:34:33.505Z,4.47
2022-08-22T09:37:00.841Z,4.30
2022-08-22T09:39:36.177Z,4.40
2022-08-22T09:42:08.089Z,4.30
2022-08-22T09:44:53.619Z,4.40
2022-08-22T09:47:26.507Z,4.20
2022-08-22T09:50:19.793Z,4.22
2022-08-22T09:52:46.010Z,3.70
2022-08-22T09:55:16.220Z,3.47
2022-08-22T09:57:56.860Z,3.60
2022-08-22T10:00:26.577Z,3.60
2022-08-22T10:03:11.844Z,3.05
2022-08-22T10:06:09.225Z,3.33
2022-08-22T10:08:42.252Z,3.10
2022-08-22T10:11:12.449Z,2.88
2022-08-22T10:14:01.260Z,3.13
2022-08-22T10:16:46.484Z,2.88
2022-08-22T10:19:28.538Z,2.83
2022-08-22T10:22:15.926Z,3.53
2022-08-22T10:24:57.247Z,2.75
2022-08-22T10:27:36.861Z,3.63
2022-08-22T10:30:20.180Z,2.80
2022-08-22T10:32:46.916Z,3.00
2022-08-22T10:35:28.380Z,3.10
2022-08-22T10:38:06.291Z,3.15
2022-08-22T10:40:39.618Z,3.05
2022-08-22T10:43:29.198Z,2.92
2022-08-22T10:46:02.483Z,2.78
2022-08-22T10:48:33.850Z,2.30
2022-08-22T10:51:09.914Z,2.40
2022-08-22T10:53:50.375Z,2.30
2022-08-22T10:56:21.843Z,2.58
2022-08-22T10:58:58.002Z,2.67
2022-08-22T11:01:37.553Z,3.30
2022-08-22T11:04:12.930Z,3.30
2022-08-22T11:06:46.651Z,2.65
2022-08-22T11:09:25.920Z,2.42
2022-08-22T11:12:02.962Z,3.00
2022-08-22T11:14:44.728Z,2.25
2022-08-22T11:17:27.943Z,2.25
2022-08-22T11:20:08.103Z,2.13
2022-08-22T11:22:50.824Z,2.30
2022-08-22T11:25:29.207Z,2.25
2022-08-22T11:28:28.867Z,2.78
2022-08-22T11:31:03.720Z,2.20
2022-08-22T11:33:46.553Z,2.60
2022-08-22T11:36:27.462Z,2.30
2022-08-22T11:39:09.962Z,2.20
2022-08-22T11:41:53.336Z,1.90
2022-08-22T11:44:23.479Z,2.10
2022-08-22T11:46:55.306Z,2.50
2022-08-22T11:49:32.891Z,2.20
2022-08-22T11:52:02.065Z,1.83
2022-08-22T11:54:47.257Z,1.90
2022-08-22T11:57:21.217Z,2.05
2022-08-22T11:59:53.412Z,2.75
2022-08-22T12:02:38.523Z,2.70
2022-08-22T12:05:34.008Z,2.40
2022-08-22T12:08:11.476Z,2.35
2022-08-22T12:10:46.863Z,2.53
2022-08-22T12:13:16.850Z,2.30
2022-08-22T12:15:44.359Z,2.35
2022-08-22T12:18:36.125Z,2.10
2022-08-22T12:21:21.579Z,2.00
2022-08-22T12:23:59.524Z,1.92
2022-08-22T12:26:50.956Z,2.28
2022-08-22T12:29:28.557Z,2.33
2022-08-22T12:32:34.148Z,1.95
2022-08-22T12:35:13.823Z,2.35
2022-08-22T12:37:59.576Z,1.90
2022-08-22T12:40:32.479Z,2.10
2022-08-22T12:43:02.690Z,1.95
2022-08-22T12:45:34.747Z,2.50
2022-08-22T12:48:19.643Z,2.00
2022-08-22T12:50:49.344Z,1.80
2022-08-22T12:53:24.536Z,2.10
2022-08-22T12:56:10.298Z,1.92
2022-08-22T12:58:50.445Z,2.50
2022-08-22T13:01:18.272Z,2.15
2022-08-22T13:03:48.616Z,2.40
2022-08-22T13:06:33.286Z,2.20
2022-08-22T13:09:00.111Z,1.75
2022-08-22T13:11:27.574Z,1.88
2022-08-22T13:13:57.261Z,2.30
2022-08-22T13:16:24.807Z,2.30
2022-08-22T13:18:56.850Z,1.75
2022-08-22T13:21:26.329Z,2.20
2022-08-22T13:23:59.835Z,2.42
2022-08-22T13:26:33.417Z,1.80
2022-08-22T13:29:25.573Z,2.20
2022-08-22T13:31:55.130Z,1.95
2022-08-22T13:34:23.566Z,2.05
2022-08-22T13:36:51.881Z,1.60
2022-08-22T13:39:26.268Z,1.83
2022-08-22T13:41:55.514Z,1.83
2022-08-22T13:44:24.550Z,2.20
2022-08-22T13:47:13.106Z,1.73
2022-08-22T13:49:39.757Z,1.95
2022-08-22T13:52:29.649Z,2.17
2022-08-22T13:55:01.912Z,1.90
2022-08-22T13:57:39.266Z,1.95
2022-08-22T14:00:07.281Z,1.80
2022-08-22T14:02:53.152Z,1.90
2022-08-22T14:05:27.639Z,1.90
2022-08-22T14:08:04.797Z,1.80
2022-08-22T14:10:41.527Z,1.83
2022-08-22T14:13:11.715Z,2.22
2022-08-22T14:15:45.703Z,2.13
2022-08-22T14:18:20.016Z,1.90
2022-08-22T14:20:47.646Z,2.40
2022-08-22T14:23:18.673Z,1.90
2022-08-22T14:25:45.148Z,2.03
2022-08-22T14:28:27.499Z,2.28
2022-08-22T14:30:58.272Z,1.83
2022-08-22T14:33:43.630Z,2.17
2022-08-22T14:36:13.783Z,2.80
2022-08-22T14:38:46.136Z,2.03
2022-08-22T14:41:26.516Z,2.40
2022-08-22T14:43:59.011Z,1.85
2022-08-22T14:46:29.613Z,2.50
2022-08-22T14:48:55.858Z,2.42
2022-08-22T14:51:24.034Z,2.17
2022-08-22T14:53:50.474Z,2.30
2022-08-22T14:56:27.804Z,2.00
2022-08-22T14:58:54.061Z,2.40
2022-08-22T15:01:21.918Z,2.00
2022-08-22T15:03:52.916Z,1.83
2022-08-22T15:06:36.743Z,1.92
2022-08-22T15:09:11.345Z,1.98
2022-08-22T15:11:37.919Z,1.92
2022-08-22T15:14:13.712Z,2.10
2022-08-22T15:16:41.870Z,2.22
2022-08-22T15:19:22.801Z,2.17
2022-08-22T15:21:49.521Z,2.15
2022-08-22T15:24:16.034Z,2.00
2022-08-22T15:26:55.447Z,2.10
2022-08-22T15:29:31.003Z,2.35
2022-08-22T15:31:59.747Z,2.50
2022-08-22T15:34:35.721Z,2.03
2022-08-22T15:37:08.339Z,2.42
2022-08-22T15:39:56.837Z,2.38
2022-08-22T15:42:30.537Z,3.00
2022-08-22T15:44:57.174Z,2.03
2022-08-22T15:47:37.975Z,2.47
2022-08-22T15:50:07.793Z,2.53
2022-08-22T15:52:59.655Z,2.13
2022-08-22T15:55:31.595Z,2.30
2022-08-22T15:58:04.542Z,2.50
2022-08-22T16:03:06.527Z,2.00
2022-08-22T16:05:55.018Z,1.92
2022-08-22T16:08:21.822Z,2.03
2022-08-22T16:11:08.359Z,2.35
2022-08-22T16:13:37.978Z,2.30
2022-08-22T16:16:04.776Z,2.45
2022-08-22T16:18:34.071Z,2.25
2022-08-22T16:21:10.429Z,2.50
2022-08-22T16:23:48.570Z,2.25
2022-08-22T16:26:17.627Z,2.50
2022-08-22T16:28:59.989Z,2.30
2022-08-22T16:31:31.989Z,2.50
2022-08-22T16:34:18.366Z,2.17
2022-08-22T16:37:02.814Z,2.22
2022-08-22T16:39:35.504Z,2.50
2022-08-22T16:42:21.889Z,2.40
2022-08-22T16:44:48.119Z,2.50
2022-08-22T16:47:14.371Z,2.22
2022-08-22T16:49:54.035Z,1.73
2022-08-22T16:52:20.265Z,2.17
2022-08-22T16:54:47.619Z,2.28
2022-08-22T16:57:16.935Z,2.28
2022-08-22T17:00:04.583Z,2.50
2022-08-22T17:02:49.728Z,2.40
2022-08-22T17:05:34.204Z,2.03
2022-08-22T17:08:19.356Z,2.10
2022-08-22T17:10:59.146Z,2.17
2022-08-22T17:13:28.404Z,2.38
2022-08-22T17:16:25.122Z,2.30
2022-08-22T17:19:27.079Z,2.35
2022-08-22T17:21:57.071Z,2.17
2022-08-22T17:24:33.549Z,2.38
2022-08-22T17:27:19.306Z,2.20
2022-08-22T17:29:48.793Z,2.10
2022-08-22T17:32:21.344Z,2.20
2022-08-22T17:34:55.634Z,2.13
2022-08-22T17:37:23.300Z,2.10
2022-08-22T17:40:08.365Z,2.15
2022-08-22T17:42:37.367Z,2.33
2022-08-22T17:45:08.995Z,2.25
2022-08-22T17:48:14.046Z,2.40
2022-08-22T17:50:57.416Z,2.58
2022-08-22T17:53:36.064Z,3.35
2022-08-22T17:56:02.286Z,3.92
2022-08-22T17:58:37.692Z,3.55
2022-08-22T18:01:14.494Z,4.28
2022-08-22T18:03:44.850Z,5.47
2022-08-22T18:06:26.664Z,4.85
2022-08-22T18:09:14.925Z,2.65
2022-08-22T18:11:47.054Z,3.13
2022-08-22T18:14:19.197Z,3.25
2022-08-22T18:16:50.789Z,3.38
2022-08-22T18:19:55.355Z,2.95
2022-08-22T18:22:33.877Z,3.08
2022-08-22T18:25:10.677Z,2.85
2022-08-22T18:27:49.994Z,2.50
2022-08-22T18:30:21.287Z,3.08
2022-08-22T18:32:48.017Z,3.75
2022-08-22T18:35:14.985Z,3.50
2022-08-22T18:37:49.796Z,3.10
2022-08-22T18:40:26.695Z,3.17
2022-08-22T18:42:56.579Z,3.50
2022-08-22T18:45:44.220Z,3.15
2022-08-22T18:48:19.320Z,3.30
2022-08-22T18:50:46.722Z,3.05
2022-08-22T18:53:31.635Z,2.90
2022-08-22T18:56:01.143Z,3.10
2022-08-22T18:58:36.052Z,2.60
2022-08-22T19:01:23.382Z,2.60
2022-08-22T19:04:06.528Z,2.65
2022-08-22T19:06:52.124Z,3.00
2022-08-22T19:09:21.121Z,2.72
2022-08-22T19:12:06.444Z,3.17
2022-08-22T19:14:51.409Z,2.95
2022-08-22T19:17:23.539Z,2.90
2022-08-22T19:20:13.075Z,2.50
2022-08-22T19:22:39.856Z,3.37
2022-08-22T19:25:20.779Z,2.45
2022-08-22T19:28:08.519Z,2.83
2022-08-22T19:30:37.516Z,2.60
2022-08-22T19:33:09.659Z,3.17
2022-08-22T19:35:36.416Z,3.28
2022-08-22T19:38:04.652Z,3.30
2022-08-22T19:40:46.227Z,3.72
2022-08-22T19:43:27.870Z,3.70
2022-08-22T19:45:55.350Z,3.67
2022-08-22T19:48:27.235Z,3.63
2022-08-22T19:51:06.422Z,3.90
2022-08-22T19:53:38.487Z,3.65
2022-08-22T19:56:08.474Z,3.85
2022-08-22T19:58:34.717Z,4.18
2022-08-22T20:01:21.259Z,4.40
2022-08-22T20:03:56.110Z,4.25
2022-08-22T20:06:43.850Z,3.88
2022-08-22T20:09:29.564Z,4.43
2022-08-22T20:12:04.939Z,4.30
2022-08-22T20:14:35.808Z,4.95
2022-08-22T20:17:11.383Z,5.00
2022-08-22T20:19:40.578Z,5.38
2022-08-22T20:22:11.165Z,4.90
2022-08-22T20:24:40.087Z,5.40
2022-08-22T20:27:14.404Z,5.57
2022-08-22T20:29:49.297Z,5.68
2022-08-22T20:32:17.821Z,5.13
2022-08-22T20:34:44.921Z,5.00
2022-08-22T20:37:35.545Z,5.63
2022-08-22T20:40:25.854Z,5.55
2022-08-22T20:43:05.714Z,5.50
2022-08-22T20:45:40.506Z,5.40
2022-08-22T20:48:09.820Z,6.03
2022-08-22T20:50:36.135Z,6.20
2022-08-22T20:53:09.558Z,6.20
2022-08-22T20:55:36.084Z,5.20
2022-08-22T20:58:04.604Z,5.28
2022-08-22T21:00:31.533Z,5.00
2022-08-22T21:03:00.202Z,4.70
2022-08-22T21:05:32.856Z,6.10
2022-08-22T21:08:22.346Z,5.20
2022-08-22T21:11:18.645Z,5.55
2022-08-22T21:13:45.132Z,6.13
2022-08-22T21:16:15.693Z,5.80
2022-08-22T21:18:43.116Z,5.93
2022-08-22T21:21:17.566Z,5.18
2022-08-22T21:23:45.924Z,5.10
2022-08-22T21:26:19.698Z,5.53
2022-08-22T21:28:48.995Z,6.22
2022-08-22T21:31:19.220Z,5.65
2022-08-22T21:33:47.075Z,6.10
2022-08-22T21:36:15.394Z,6.40
2022-08-22T21:38:46.323Z,6.18
2022-08-22T21:41:15.187Z,6.72
2022-08-22T21:43:48.092Z,7.18
2022-08-22T21:46:23.229Z,7.28
2022-08-22T21:49:00.765Z,6.82
2022-08-22T21:51:30.665Z,6.72
2022-08-22T21:54:29.404Z,6.78
2022-08-22T21:56:57.868Z,6.65
2022-08-22T21:59:50.827Z,6.70
2022-08-22T22:02:27.864Z,7.18
2022-08-22T22:04:54.535Z,7.60
2022-08-22T22:07:22.823Z,7.90
2022-08-22T22:09:54.727Z,7.40
2022-08-22T22:12:21.751Z,12.93
2022-08-22T22:14:51.106Z,16.95
2022-08-22T22:17:18.080Z,15.43
2022-08-22T22:19:44.749Z,12.30
2022-08-22T22:22:11.137Z,11.40
2022-08-22T22:24:37.600Z,10.88
2022-08-22T22:27:04.076Z,11.07
2022-08-22T22:29:30.333Z,10.98
2022-08-22T22:31:56.605Z,10.23
2022-08-22T22:34:23.160Z,10.10
2022-08-22T22:36:49.415Z,10.15
2022-08-22T22:39:15.702Z,8.90
2022-08-22T22:41:42.286Z,9.25
2022-08-22T22:44:08.539Z,9.20
2022-08-22T22:46:34.791Z,8.65
2022-08-22T22:49:01.103Z,8.18
2022-08-22T22:51:27.555Z,8.10
2022-08-22T22:53:54.978Z,7.55
2022-08-22T22:56:22.324Z,8.65
2022-08-22T22:58:49.369Z,8.15
2022-08-22T23:01:23.275Z,8.77
2022-08-22T23:03:53.999Z,8.95
2022-08-22T23:06:21.444Z,8.38
2022-08-22T23:08:48.362Z,8.60
2022-08-22T23:11:19.490Z,9.40
2022-08-22T23:13:46.054Z,8.60
2022-08-22T23:16:13.813Z,9.30
2022-08-22T23:18:40.454Z,8.82
2022-08-22T23:21:20.429Z,9.27
2022-08-22T23:23:46.947Z,9.10
2022-08-22T23:26:13.671Z,8.70
2022-08-22T23:28:40.116Z,8.40
2022-08-22T23:31:13.851Z,9.05
2022-08-22T23:33:40.181Z,9.18
2022-08-22T23:36:10.951Z,8.85
2022-08-22T23:38:37.390Z,9.68
2022-08-22T23:41:09.585Z,9.70
2022-08-22T23:43:36.416Z,8.95
2022-08-22T23:46:02.700Z,9.38
2022-08-22T23:48:28.977Z,9.10
2022-08-22T23:50:55.215Z,8.85
2022-08-22T23:53:21.484Z,9.43
2022-08-22T23:55:47.738Z,9.02
2022-08-22T23:58:15.892Z,9.20
